Time;durP1;ratioP1;P1;durP2;ratioP2;P2;SDS_P1;SDS_P2;PMS_P1;PMS_P2;Temp;Humidity;BMP_temperature;BMP_pressure;BME280_temperature;BME280_humidity;BME280_pressure;Samples;Min_cycle;Max_cycle;Signal;HPM_P1;HPM_P2
2022/10/02 00:03:30;;;;;;;8.40;4.03;;;14.30;99.90;;;;;;10398839;28;20193;-77
2022/10/02 00:08:41;;;;;;;8.13;3.90;;;14.40;99.90;;;;;;10416782;28;20232;-77
2022/10/02 00:13:48;;;;;;;6.67;4.30;;;14.40;99.90;;;;;;10416698;28;20232;-77
2022/10/02 00:18:50;;;;;;;7.73;4.73;;;14.50;99.90;;;;;;10398312;28;20662;-77
2022/10/02 00:23:58;;;;;;;4.97;3.90;;;14.50;99.90;;;;;;10415261;28;20662;-77
2022/10/02 00:29:09;;;;;;;7.07;3.87;;;14.60;99.90;;;;;;10415917;28;20214;-78
2022/10/02 00:34:21;;;;;;;6.20;4.40;;;14.60;99.90;;;;;;10416544;28;20960;-78
2022/10/02 00:39:36;;;;;;;4.70;4.23;;;14.50;99.90;;;;;;10384417;28;20198;-78
2022/10/02 00:44:55;;;;;;;6.20;3.87;;;14.50;99.90;;;;;;10415244;28;20563;-77
2022/10/02 00:50:06;;;;;;;10.43;4.57;;;14.40;99.90;;;;;;10414340;28;20198;-78
2022/10/02 00:55:28;;;;;;;5.90;4.57;;;14.40;99.90;;;;;;10396407;28;20224;-78
2022/10/02 01:00:31;;;;;;;4.40;4.00;;;14.40;99.90;;;;;;10396078;28;20244;-78
2022/10/02 01:05:34;;;;;;;4.60;4.20;;;14.40;99.90;;;;;;10385035;28;20268;-78
2022/10/02 01:10:42;;;;;;;6.00;4.30;;;14.40;99.90;;;;;;10414900;28;20268;-78
2022/10/02 01:15:51;;;;;;;7.43;4.50;;;14.40;99.90;;;;;;10396823;28;20297;-78
2022/10/02 01:20:58;;;;;;;4.97;4.20;;;14.50;99.90;;;;;;10415663;28;20193;-77
2022/10/02 01:26:02;;;;;;;6.13;4.60;;;14.50;99.90;;;;;;10395703;28;20222;-77
2022/10/02 01:31:09;;;;;;;9.60;4.80;;;14.50;99.90;;;;;;10396045;28;20269;-77
2022/10/02 01:36:13;;;;;;;4.80;4.30;;;14.50;99.90;;;;;;10413278;28;20613;-77
2022/10/02 01:41:16;;;;;;;6.53;4.83;;;14.60;99.90;;;;;;10395114;28;20198;-78
2022/10/02 01:46:33;;;;;;;7.30;4.37;;;14.60;99.90;;;;;;10412812;28;20226;-77
2022/10/02 01:52:02;;;;;;;6.07;5.60;;;14.60;99.90;;;;;;10411971;28;20208;-77
2022/10/02 01:57:16;;;;;;;5.90;5.50;;;14.60;99.90;;;;;;10415240;28;20293;-77
2022/10/02 02:02:26;;;;;;;5.93;5.53;;;14.70;99.90;;;;;;10412123;28;20225;-78
2022/10/02 02:07:35;;;;;;;5.60;5.10;;;14.70;99.90;;;;;;10412395;28;20218;-78
2022/10/02 02:12:43;;;;;;;5.40;5.00;;;14.70;99.90;;;;;;10393677;28;20282;-77
2022/10/02 02:17:50;;;;;;;5.10;4.60;;;14.70;99.90;;;;;;10411145;28;20629;-77
2022/10/02 02:22:55;;;;;;;8.77;4.97;;;14.80;99.90;;;;;;10393192;28;20307;-77
2022/10/02 02:28:03;;;;;;;5.13;4.57;;;14.80;99.90;;;;;;10410773;28;20300;-77
2022/10/02 02:33:10;;;;;;;6.33;5.23;;;14.80;99.90;;;;;;10376624;28;20203;-78
2022/10/02 02:38:17;;;;;;;5.30;4.90;;;14.80;99.90;;;;;;10410281;28;20307;-78
2022/10/02 02:43:25;;;;;;;5.73;4.60;;;14.90;99.90;;;;;;10410787;28;20206;-77
2022/10/02 02:48:31;;;;;;;5.17;4.70;;;14.90;99.90;;;;;;10392707;28;20655;-78
2022/10/02 02:53:38;;;;;;;5.20;4.80;;;14.90;99.90;;;;;;10409841;28;20273;-78
2022/10/02 02:58:46;;;;;;;7.10;6.40;;;14.90;99.90;;;;;;10410091;28;20201;-78
2022/10/02 03:03:48;;;;;;;5.37;4.10;;;14.90;99.90;;;;;;10410043;28;20214;-78
2022/10/02 03:08:52;;;;;;;6.37;5.53;;;14.90;99.90;;;;;;10392210;28;20239;-78
2022/10/02 03:14:06;;;;;;;6.70;4.67;;;14.90;99.90;;;;;;10392316;28;20296;-78
2022/10/02 03:19:23;;;;;;;8.73;6.63;;;15.00;99.90;;;;;;10409355;28;20579;-78
2022/10/02 03:24:32;;;;;;;7.10;5.23;;;15.00;99.90;;;;;;10413472;28;20538;-77
2022/10/02 03:29:39;;;;;;;6.57;6.07;;;15.00;99.90;;;;;;10417388;28;20612;-77
2022/10/02 03:34:42;;;;;;;5.30;4.90;;;15.00;99.90;;;;;;10399978;28;20217;-77
2022/10/02 03:39:44;;;;;;;10.07;5.83;;;14.90;99.90;;;;;;10399094;28;20216;-77
2022/10/02 03:44:48;;;;;;;5.87;5.30;;;15.00;99.90;;;;;;10417037;28;20210;-78
2022/10/02 03:49:50;;;;;;;5.77;5.20;;;14.90;99.90;;;;;;10416923;28;20204;-78
2022/10/02 03:54:56;;;;;;;7.07;5.33;;;14.90;99.90;;;;;;10416540;28;20220;-77
2022/10/02 04:00:04;;;;;;;6.33;5.13;;;14.90;99.90;;;;;;10416649;28;20198;-77
2022/10/02 04:05:24;;;;;;;5.70;5.20;;;14.90;99.90;;;;;;10416174;28;20670;-77
2022/10/02 04:10:35;;;;;;;5.80;5.30;;;14.90;99.90;;;;;;10416317;28;20198;-78
2022/10/02 04:15:54;;;;;;;6.17;5.67;;;14.90;99.90;;;;;;10415689;28;20241;-78
2022/10/02 04:20:59;;;;;;;5.27;4.87;;;14.90;99.90;;;;;;10415839;28;20627;-78
2022/10/02 04:26:09;;;;;;;5.70;5.03;;;14.90;99.90;;;;;;10397448;28;20380;-77
2022/10/02 04:31:13;;;;;;;8.53;5.10;;;14.90;99.90;;;;;;10415557;28;20202;-78
2022/10/02 04:36:39;;;;;;;5.80;5.00;;;14.90;99.90;;;;;;10414401;28;20233;-78
2022/10/02 04:42:02;;;;;;;5.40;4.83;;;14.90;99.90;;;;;;10415616;28;20262;-78
2022/10/02 04:47:20;;;;;;;10.40;5.10;;;14.90;99.90;;;;;;10397863;28;20249;-77
2022/10/02 04:52:33;;;;;;;7.57;4.83;;;14.90;99.90;;;;;;10415263;28;20194;-77
2022/10/02 04:57:55;;;;;;;5.00;4.50;;;14.90;99.90;;;;;;10375061;28;20325;-78
2022/10/02 05:03:14;;;;;;;5.97;4.77;;;14.90;99.90;;;;;;10375448;28;20197;-77
2022/10/02 05:08:44;;;;;;;7.47;6.80;;;14.90;99.90;;;;;;10396275;28;20296;-77
2022/10/02 05:14:15;;;;;;;9.17;7.33;;;14.90;99.90;;;;;;10414103;28;20225;-77
2022/10/02 05:19:41;;;;;;;7.50;6.80;;;14.90;99.90;;;;;;10413565;28;20193;-78
2022/10/02 05:24:50;;;;;;;8.43;5.70;;;14.80;99.90;;;;;;10395796;28;20646;-77
2022/10/02 05:30:08;;;;;;;6.00;5.50;;;14.70;99.90;;;;;;10413115;28;20712;-77
2022/10/02 05:35:30;;;;;;;5.93;5.30;;;14.70;99.90;;;;;;10413201;28;20232;-77
2022/10/02 05:40:40;;;;;;;7.87;5.87;;;14.70;99.90;;;;;;10413234;28;20198;-77
2022/10/02 05:45:48;;;;;;;10.33;6.10;;;14.70;99.90;;;;;;10412169;28;20260;-77
2022/10/02 05:50:59;;;;;;;8.57;5.77;;;14.70;99.90;;;;;;10412174;28;20201;-77
2022/10/02 05:56:08;;;;;;;5.80;5.40;;;14.70;99.90;;;;;;10412431;28;20210;-77
2022/10/02 06:01:16;;;;;;;6.60;6.00;;;14.70;99.90;;;;;;10414231;28;20277;-78
2022/10/02 06:06:24;;;;;;;8.20;5.87;;;14.70;99.90;;;;;;10415265;28;20220;-77
2022/10/02 06:11:30;;;;;;;7.03;6.33;;;14.70;99.90;;;;;;10414924;28;20198;-77
2022/10/02 06:16:36;;;;;;;7.53;6.87;;;14.70;99.90;;;;;;10396995;28;20202;-78
2022/10/02 06:21:46;;;;;;;8.67;7.97;;;14.70;99.90;;;;;;10414937;28;20292;-78
2022/10/02 06:26:52;;;;;;;9.23;7.57;;;14.60;99.90;;;;;;10415071;28;20222;-78
2022/10/02 06:32:06;;;;;;;8.20;7.60;;;14.60;99.90;;;;;;10414546;28;20197;-78
2022/10/02 06:37:35;;;;;;;10.40;7.90;;;14.50;99.90;;;;;;10414590;28;20220;-78
2022/10/02 06:42:48;;;;;;;12.07;9.07;;;14.50;99.90;;;;;;10369750;28;20195;-78
2022/10/02 06:48:01;;;;;;;9.93;9.03;;;14.50;99.90;;;;;;10401865;28;20229;-77
2022/10/02 06:53:16;;;;;;;8.00;7.23;;;14.50;99.90;;;;;;10396417;28;20796;-78
2022/10/02 06:58:47;;;;;;;9.30;8.57;;;14.50;99.90;;;;;;10396803;28;20724;-77
2022/10/02 07:04:12;;;;;;;9.57;8.63;;;14.50;99.90;;;;;;10402049;28;20247;-77
2022/10/02 07:09:41;;;;;;;12.90;11.60;;;14.50;99.90;;;;;;10413367;28;20279;-78
2022/10/02 07:14:59;;;;;;;19.13;12.20;;;14.50;99.90;;;;;;10402713;28;20353;-78
2022/10/02 07:20:30;;;;;;;12.80;11.53;;;14.60;99.90;;;;;;10372916;28;20201;-78
2022/10/02 07:25:46;;;;;;;14.17;12.77;;;14.60;99.90;;;;;;10392917;28;20221;-78
2022/10/02 07:30:56;;;;;;;16.27;14.80;;;14.60;99.90;;;;;;10395171;28;20190;-78
2022/10/02 07:36:03;;;;;;;15.93;14.00;;;14.60;99.90;;;;;;10413544;28;20229;-78
2022/10/02 07:41:20;;;;;;;13.27;12.33;;;14.60;99.90;;;;;;10413502;28;20222;-78
2022/10/02 07:46:31;;;;;;;14.50;11.17;;;14.60;99.90;;;;;;10414165;28;20271;-78
2022/10/02 07:51:49;;;;;;;12.97;11.97;;;14.70;99.90;;;;;;10412783;28;20194;-77
2022/10/02 07:56:57;;;;;;;12.73;11.70;;;14.70;99.90;;;;;;10411950;28;20220;-78
2022/10/02 08:01:59;;;;;;;13.60;12.60;;;14.70;99.90;;;;;;10412548;28;20281;-77
2022/10/02 08:07:04;;;;;;;13.43;11.40;;;14.80;99.90;;;;;;10407746;28;20600;-78
2022/10/02 08:12:21;;;;;;;12.47;11.57;;;14.80;99.90;;;;;;10415262;28;20198;-77
2022/10/02 08:17:30;;;;;;;14.67;13.23;;;14.80;99.90;;;;;;10419816;28;20553;-77
2022/10/02 08:22:37;;;;;;;14.00;12.97;;;14.90;99.90;;;;;;10418069;28;20205;-77
2022/10/02 08:27:51;;;;;;;17.70;14.87;;;14.90;99.90;;;;;;10419937;28;20272;-77
2022/10/02 08:32:54;;;;;;;15.70;14.50;;;15.10;99.90;;;;;;10418174;28;20198;-78
2022/10/02 08:38:26;;;;;;;16.30;15.10;;;15.10;99.90;;;;;;10401185;28;20693;-78
2022/10/02 08:44:15;;;;;;;14.10;13.00;;;15.30;99.90;;;;;;10419367;28;20213;-78
2022/10/02 08:49:47;;;;;;;12.80;11.90;;;15.50;99.90;;;;;;10401259;28;20217;-77
2022/10/02 08:55:28;;;;;;;13.20;12.17;;;15.80;99.90;;;;;;10417504;28;20686;-78
2022/10/02 09:00:43;;;;;;;12.03;11.03;;;16.00;99.90;;;;;;10281454;28;20693;-77
2022/10/02 09:06:27;;;;;;;12.77;11.60;;;16.00;99.90;;;;;;10416433;28;20225;-77
2022/10/02 09:12:09;;;;;;;10.93;9.83;;;16.20;99.90;;;;;;10401687;28;20198;-77
2022/10/02 09:17:35;;;;;;;10.73;9.83;;;16.30;99.90;;;;;;10403453;28;20232;-77
2022/10/02 09:23:00;;;;;;;8.73;7.47;;;16.40;99.90;;;;;;10394117;28;20660;-76
2022/10/02 09:28:48;;;;;;;11.20;10.30;;;16.40;99.90;;;;;;10389939;28;20222;-77
2022/10/02 09:34:25;;;;;;;13.17;12.13;;;16.50;99.90;;;;;;10392809;28;20217;-77
2022/10/02 09:39:58;;;;;;;10.83;10.00;;;16.60;99.90;;;;;;10411396;28;20676;-77
2022/10/02 09:45:35;;;;;;;9.97;8.93;;;16.80;99.90;;;;;;10407405;28;20939;-77
2022/10/02 09:51:19;;;;;;;9.43;8.73;;;16.90;99.90;;;;;;10389436;28;20226;-77
2022/10/02 09:56:54;;;;;;;9.87;9.03;;;16.90;99.90;;;;;;10390106;28;20217;-77
2022/10/02 10:02:20;;;;;;;9.73;8.83;;;16.80;99.90;;;;;;10383543;28;20621;-78
2022/10/02 10:07:59;;;;;;;9.30;8.60;;;16.60;99.90;;;;;;10361680;28;20208;-78
2022/10/02 10:13:31;;;;;;;8.63;8.00;;;16.50;99.90;;;;;;10379507;28;20279;-77
2022/10/02 10:19:14;;;;;;;7.93;7.23;;;16.40;99.90;;;;;;10409721;28;20269;-77
2022/10/02 10:24:51;;;;;;;11.93;11.17;;;16.30;99.90;;;;;;10402640;28;20312;-78
2022/10/02 10:30:16;;;;;;;11.80;10.60;;;16.10;99.90;;;;;;10399200;28;20681;-78
2022/10/02 10:35:45;;;;;;;14.00;12.90;;;16.00;99.90;;;;;;10393949;28;20221;-77
2022/10/02 10:41:29;;;;;;;12.17;11.40;;;15.80;99.90;;;;;;10411319;28;20245;-77
2022/10/02 10:46:54;;;;;;;10.80;10.13;;;15.80;99.90;;;;;;10410311;28;20225;-77
2022/10/02 10:52:06;;;;;;;12.13;11.43;;;15.70;99.90;;;;;;10384422;28;20647;-77
2022/10/02 10:57:16;;;;;;;11.27;10.67;;;15.70;99.90;;;;;;10382840;28;20222;-77
2022/10/02 11:02:50;;;;;;;11.20;10.30;;;15.60;99.90;;;;;;10408480;28;20221;-77
2022/10/02 11:08:12;;;;;;;10.87;10.17;;;15.60;99.90;;;;;;10390777;28;20222;-77
2022/10/02 11:13:36;;;;;;;10.10;9.50;;;15.50;99.90;;;;;;10408145;28;20790;-77
2022/10/02 11:19:17;;;;;;;10.53;9.93;;;15.50;99.90;;;;;;10409767;28;20193;-77
2022/10/02 11:24:56;;;;;;;10.03;9.43;;;15.60;99.90;;;;;;10355857;28;20234;-77
2022/10/02 11:30:19;;;;;;;8.73;8.37;;;15.60;99.90;;;;;;10370068;28;20234;-77
2022/10/02 11:35:26;;;;;;;9.00;8.60;;;15.60;99.90;;;;;;10378872;28;20225;-77
2022/10/02 11:40:53;;;;;;;10.03;9.63;;;15.70;99.90;;;;;;10392468;28;20277;-77
2022/10/02 11:46:23;;;;;;;9.30;8.90;;;15.70;99.90;;;;;;10412920;28;20225;-77
2022/10/02 11:51:49;;;;;;;8.73;8.40;;;15.70;99.90;;;;;;10417522;28;20207;-77
2022/10/02 11:57:31;;;;;;;7.80;7.50;;;15.70;99.90;;;;;;10421095;28;20234;-78
2022/10/02 12:02:38;;;;;;;7.37;7.17;;;15.70;99.90;;;;;;10385517;28;20209;-78
2022/10/02 12:07:47;;;;;;;7.30;6.90;;;15.60;99.90;;;;;;10423013;28;20233;-78
2022/10/02 12:13:02;;;;;;;8.70;8.40;;;15.60;99.90;;;;;;10424729;28;20194;-78
2022/10/02 12:18:35;;;;;;;8.03;7.73;;;15.60;99.90;;;;;;10405616;28;20236;-76
2022/10/02 12:29:18;;;;;;;7.30;7.00;;;15.80;99.90;;;;;;10424010;28;20724;-78
2022/10/02 12:34:38;;;;;;;7.50;7.20;;;15.80;99.90;;;;;;10425121;28;20808;-77
2022/10/02 12:39:49;;;;;;;6.30;6.10;;;15.70;99.90;;;;;;10406842;28;20236;-78
2022/10/02 12:45:15;;;;;;;8.73;8.33;;;15.70;99.90;;;;;;10422913;28;20249;-79
2022/10/02 12:50:24;;;;;;;10.37;9.87;;;15.60;99.90;;;;;;10420132;28;20209;-78
2022/10/02 12:56:01;;;;;;;8.63;8.33;;;15.60;99.90;;;;;;10406512;28;20221;-78
2022/10/02 13:01:36;;;;;;;10.13;9.63;;;15.50;99.90;;;;;;10391537;28;20190;-76
2022/10/02 13:07:12;;;;;;;5.90;5.60;;;15.40;99.90;;;;;;10378773;28;20589;-78
2022/10/02 13:12:31;;;;;;;6.57;6.27;;;15.40;99.90;;;;;;10423442;28;20716;-79
2022/10/02 13:17:45;;;;;;;7.63;7.33;;;15.30;99.90;;;;;;10427853;28;20280;-78
2022/10/02 13:22:57;;;;;;;4.87;4.67;;;15.30;99.90;;;;;;10418189;28;20202;-78
2022/10/02 13:28:14;;;;;;;9.13;8.63;;;15.30;99.90;;;;;;10401887;28;20275;-78
2022/10/02 13:33:34;;;;;;;7.23;6.93;;;15.30;99.90;;;;;;10382790;28;20289;-77
2022/10/02 13:38:59;;;;;;;8.00;7.70;;;15.30;99.90;;;;;;10381800;28;20194;-78
2022/10/02 13:44:11;;;;;;;8.53;8.20;;;15.40;99.90;;;;;;10400383;28;20201;-77
2022/10/02 13:49:23;;;;;;;5.40;5.20;;;15.40;99.90;;;;;;10418483;28;20232;-77
2022/10/02 13:54:50;;;;;;;9.00;8.60;;;15.30;99.90;;;;;;10402425;28;20276;-77
2022/10/02 14:00:13;;;;;;;8.20;7.90;;;15.30;99.90;;;;;;10418097;28;20202;-78
2022/10/02 14:05:30;;;;;;;8.50;8.20;;;15.40;99.90;;;;;;10418976;28;20301;-77
2022/10/02 14:10:41;;;;;;;8.10;7.70;;;15.40;99.90;;;;;;10399707;28;20222;-78
2022/10/02 14:15:53;;;;;;;7.63;7.33;;;15.40;99.90;;;;;;10400366;28;20753;-79
2022/10/02 14:21:08;;;;;;;7.63;7.30;;;15.40;99.90;;;;;;10401433;28;20201;-78
2022/10/02 14:26:22;;;;;;;7.37;6.97;;;15.40;99.90;;;;;;10418776;28;20690;-78
2022/10/02 14:31:56;;;;;;;6.80;6.60;;;15.30;99.90;;;;;;10416169;28;20711;-78
2022/10/02 14:37:28;;;;;;;5.37;5.17;;;15.30;99.90;;;;;;10403112;28;20608;-78
2022/10/02 14:42:43;;;;;;;6.60;6.40;;;15.30;99.90;;;;;;10403648;28;20198;-78
2022/10/02 14:48:00;;;;;;;7.17;6.87;;;15.30;99.90;;;;;;10416786;28;20245;-78
2022/10/02 14:53:25;;;;;;;4.73;4.63;;;15.30;99.90;;;;;;10400254;28;20219;-78
2022/10/02 14:58:41;;;;;;;4.50;4.40;;;15.30;99.90;;;;;;10397668;28;20204;-77
2022/10/02 15:04:34;;;;;;;7.77;7.47;;;15.30;99.90;;;;;;10413932;28;20292;-78
2022/10/02 15:09:44;;;;;;;7.30;7.00;;;15.30;99.90;;;;;;10400014;28;20272;-78
2022/10/02 15:14:57;;;;;;;8.70;8.30;;;15.30;99.90;;;;;;10422087;28;20289;-78
2022/10/02 15:20:06;;;;;;;7.60;7.30;;;15.40;99.90;;;;;;10421781;28;20193;-78
2022/10/02 15:25:16;;;;;;;8.27;7.97;;;15.30;99.90;;;;;;10425531;28;20247;-78
2022/10/02 15:30:21;;;;;;;8.70;8.30;;;15.30;99.90;;;;;;10406340;28;20224;-78
2022/10/02 15:35:31;;;;;;;8.80;8.40;;;15.30;99.90;;;;;;10419135;28;20764;-78
2022/10/02 15:40:38;;;;;;;10.57;10.03;;;15.20;99.90;;;;;;10412724;28;20194;-77
2022/10/02 15:45:59;;;;;;;9.40;9.00;;;15.20;99.90;;;;;;10419297;28;20213;-78
2022/10/02 15:51:08;;;;;;;11.40;10.80;;;15.10;99.90;;;;;;10409970;28;20781;-78
2022/10/02 15:56:32;;;;;;;9.23;8.83;;;15.00;99.90;;;;;;10419028;28;20241;-78
2022/10/02 16:01:43;;;;;;;9.37;8.97;;;14.90;99.90;;;;;;10403406;28;20193;-77
2022/10/02 16:07:19;;;;;;;7.80;7.50;;;14.90;99.90;;;;;;10421005;28;20222;-77
2022/10/02 16:12:34;;;;;;;10.20;9.70;;;14.90;99.90;;;;;;10423022;28;20202;-77
2022/10/02 16:18:07;;;;;;;10.77;10.10;;;14.90;99.90;;;;;;10423399;28;20292;-78
2022/10/02 16:23:23;;;;;;;10.60;9.90;;;14.90;99.90;;;;;;10393009;28;20268;-78
2022/10/02 16:28:37;;;;;;;9.13;8.23;;;14.90;99.90;;;;;;10421682;28;20319;-80
2022/10/02 16:33:51;;;;;;;11.90;11.03;;;14.80;99.90;;;;;;10419678;28;20202;-78
2022/10/02 16:39:13;;;;;;;11.20;10.70;;;14.80;99.90;;;;;;10422790;28;20277;-78
2022/10/02 16:44:39;;;;;;;9.43;8.83;;;14.80;99.90;;;;;;10420494;28;20287;-78
2022/10/02 16:49:50;;;;;;;11.83;11.13;;;14.80;99.90;;;;;;10418395;28;20209;-79
2022/10/02 16:55:00;;;;;;;12.30;11.50;;;14.80;99.90;;;;;;10392524;28;20341;-79
2022/10/02 17:00:09;;;;;;;14.20;12.90;;;14.80;99.90;;;;;;10416045;28;20190;-78
2022/10/02 17:05:23;;;;;;;11.63;11.03;;;14.80;99.90;;;;;;10385900;28;20222;-79
2022/10/02 17:10:36;;;;;;;10.73;10.23;;;14.70;99.90;;;;;;10426861;28;20784;-79
2022/10/02 17:15:48;;;;;;;10.43;10.03;;;14.70;99.90;;;;;;10421278;28;20222;-78
2022/10/02 17:20:54;;;;;;;12.13;11.43;;;14.70;99.90;;;;;;10421691;28;20261;-79
2022/10/02 17:26:01;;;;;;;12.00;11.20;;;14.70;99.90;;;;;;10420802;28;20236;-79
2022/10/02 17:31:28;;;;;;;12.70;11.80;;;14.70;99.90;;;;;;10421585;28;20222;-78
2022/10/02 17:36:34;;;;;;;10.70;10.20;;;14.60;99.90;;;;;;10404239;28;20213;-79
2022/10/02 17:41:46;;;;;;;10.67;10.07;;;14.60;99.90;;;;;;10422061;28;20194;-79
2022/10/02 17:47:13;;;;;;;9.10;8.70;;;14.60;99.90;;;;;;10426705;28;20724;-79
2022/10/02 17:57:58;;;;;;;11.00;10.37;;;14.50;99.90;;;;;;10420013;28;20677;-79
2022/10/02 18:03:37;;;;;;;9.47;9.07;;;14.60;99.90;;;;;;10419912;28;20576;-79
2022/10/02 18:09:00;;;;;;;9.40;8.90;;;14.60;99.90;;;;;;10377963;28;20252;-78
2022/10/02 18:14:16;;;;;;;11.10;10.50;;;14.50;99.90;;;;;;10417761;28;20229;-79
2022/10/02 18:19:29;;;;;;;10.63;10.10;;;14.60;99.90;;;;;;10402152;28;20205;-78
2022/10/02 18:24:50;;;;;;;8.87;8.37;;;14.50;99.90;;;;;;10401662;28;20291;-79
2022/10/02 18:30:07;;;;;;;14.60;13.80;;;14.50;99.90;;;;;;10402512;28;20217;-78
2022/10/02 18:35:27;;;;;;;11.90;11.30;;;14.50;99.90;;;;;;10401983;28;20218;-79
2022/10/02 18:40:33;;;;;;;12.63;11.57;;;14.50;99.90;;;;;;10395817;28;20198;-79
2022/10/02 18:45:47;;;;;;;12.63;11.93;;;14.40;99.90;;;;;;10402170;28;20229;-78
2022/10/02 18:51:12;;;;;;;13.43;12.53;;;14.40;99.90;;;;;;10417809;28;20257;-79
2022/10/02 18:56:21;;;;;;;13.07;12.23;;;14.50;99.90;;;;;;10416901;28;20213;-78
2022/10/02 19:01:44;;;;;;;13.30;12.60;;;14.50;99.90;;;;;;10396544;28;20202;-78
2022/10/02 19:06:54;;;;;;;12.77;11.87;;;14.50;99.90;;;;;;10416964;28;20271;-79
2022/10/02 19:12:00;;;;;;;16.83;15.37;;;14.50;99.90;;;;;;10395663;28;20198;-78
2022/10/02 19:17:07;;;;;;;12.87;12.17;;;14.40;99.90;;;;;;10410130;28;20217;-78
2022/10/02 19:22:18;;;;;;;28.67;19.90;;;14.40;99.90;;;;;;10412559;28;20197;-78
2022/10/02 19:27:25;;;;;;;16.20;14.70;;;14.40;99.90;;;;;;10409159;28;20226;-78
2022/10/02 19:32:32;;;;;;;15.37;14.23;;;14.30;99.90;;;;;;10410478;28;20706;-78
2022/10/02 19:37:41;;;;;;;14.80;13.90;;;14.30;99.90;;;;;;10408525;28;20214;-78
2022/10/02 19:42:48;;;;;;;15.23;13.97;;;14.30;99.90;;;;;;10407476;28;20205;-78
2022/10/02 19:47:53;;;;;;;13.70;13.00;;;14.20;99.90;;;;;;10409591;28;20287;-78
2022/10/02 19:52:59;;;;;;;11.57;11.03;;;14.20;99.90;;;;;;10408719;28;20194;-78
2022/10/02 19:58:06;;;;;;;10.60;9.97;;;14.20;99.90;;;;;;10391965;28;20228;-78
2022/10/02 20:03:15;;;;;;;16.67;15.63;;;14.20;99.90;;;;;;10391105;28;20193;-78
2022/10/02 20:08:24;;;;;;;15.90;14.93;;;14.20;99.90;;;;;;10414309;28;20214;-78
2022/10/02 20:13:32;;;;;;;11.87;11.37;;;14.20;99.90;;;;;;10416743;28;20233;-78
2022/10/02 20:18:35;;;;;;;13.73;12.83;;;14.20;99.90;;;;;;10411685;28;20281;-77
2022/10/02 20:23:42;;;;;;;11.20;10.70;;;14.30;99.90;;;;;;10419757;28;20226;-77
2022/10/02 20:28:47;;;;;;;11.37;10.87;;;14.30;99.90;;;;;;10420105;28;20218;-77
2022/10/02 20:33:53;;;;;;;13.20;12.50;;;14.30;99.90;;;;;;10419818;28;20221;-77
2022/10/02 20:39:01;;;;;;;13.40;12.60;;;14.30;99.90;;;;;;10418959;28;20190;-77
2022/10/02 20:44:05;;;;;;;12.60;11.80;;;14.40;99.90;;;;;;10415677;28;20644;-77
2022/10/02 20:49:39;;;;;;;12.20;11.50;;;14.50;99.90;;;;;;10409720;28;20591;-78
2022/10/02 20:54:56;;;;;;;7.27;6.87;;;14.50;99.90;;;;;;10391102;28;20304;-78
2022/10/02 21:00:11;;;;;;;11.10;10.50;;;14.50;99.90;;;;;;10411770;28;20209;-77
2022/10/02 21:05:46;;;;;;;10.50;9.80;;;14.50;99.90;;;;;;10413665;28;20789;-78
2022/10/02 21:11:14;;;;;;;9.53;9.07;;;14.50;99.90;;;;;;10399789;28;20217;-77
2022/10/02 21:16:43;;;;;;;10.23;9.63;;;14.50;99.90;;;;;;10412261;28;20218;-77
2022/10/02 21:22:33;;;;;;;11.60;10.90;;;14.50;99.90;;;;;;10412168;28;20204;-78
2022/10/02 21:28:12;;;;;;;12.30;11.60;;;14.50;99.90;;;;;;10412309;28;20287;-77
2022/10/02 21:33:20;;;;;;;13.80;12.93;;;14.50;99.90;;;;;;10413054;28;20296;-78
2022/10/02 21:38:49;;;;;;;14.00;13.00;;;14.50;99.90;;;;;;10412036;28;20229;-78
2022/10/02 21:44:32;;;;;;;12.63;11.83;;;14.50;99.90;;;;;;10376334;28;20232;-78
2022/10/02 21:50:07;;;;;;;13.47;12.50;;;14.50;99.90;;;;;;10410587;28;20231;-77
2022/10/02 21:55:38;;;;;;;12.17;11.27;;;14.60;99.90;;;;;;10411469;28;20220;-77
2022/10/02 22:01:15;;;;;;;13.20;12.20;;;14.60;99.90;;;;;;10396008;28;20190;-77
2022/10/02 22:06:27;;;;;;;11.97;11.10;;;14.50;99.90;;;;;;10411157;28;20661;-78
2022/10/02 22:11:39;;;;;;;13.80;12.80;;;14.50;99.90;;;;;;10411125;28;20872;-78
2022/10/02 22:16:53;;;;;;;10.63;9.83;;;14.40;99.90;;;;;;10401262;28;20226;-77
2022/10/02 22:22:10;;;;;;;12.30;11.50;;;14.40;99.90;;;;;;10385059;28;20273;-78
2022/10/02 22:27:43;;;;;;;12.80;11.80;;;14.40;99.90;;;;;;10410927;28;20225;-77
2022/10/02 22:33:12;;;;;;;10.70;9.70;;;14.40;99.90;;;;;;10382198;28;20229;-78
2022/10/02 22:38:22;;;;;;;9.33;8.63;;;14.40;99.90;;;;;;10407399;28;20225;-77
2022/10/02 22:43:30;;;;;;;12.50;11.80;;;14.40;99.90;;;;;;10392147;28;20229;-78
2022/10/02 22:48:39;;;;;;;10.00;9.40;;;14.40;99.90;;;;;;10394364;28;20202;-78
2022/10/02 22:53:49;;;;;;;10.80;10.00;;;14.40;99.90;;;;;;10409845;28;20627;-78
2022/10/02 22:58:59;;;;;;;10.07;9.37;;;14.30;99.90;;;;;;10408954;28;20202;-78
2022/10/02 23:04:15;;;;;;;9.93;9.33;;;14.40;99.90;;;;;;10410157;28;20217;-77
2022/10/02 23:09:22;;;;;;;9.53;8.73;;;14.30;99.90;;;;;;10410118;28;20299;-78
2022/10/02 23:14:30;;;;;;;8.50;8.00;;;14.40;99.90;;;;;;10409842;28;20224;-77
2022/10/02 23:19:43;;;;;;;10.03;9.43;;;14.30;99.90;;;;;;10392284;28;20272;-77
2022/10/02 23:24:51;;;;;;;8.87;8.47;;;14.30;99.90;;;;;;10409410;28;20356;-77
2022/10/02 23:29:58;;;;;;;9.53;8.97;;;14.20;99.90;;;;;;10409127;28;20217;-77
2022/10/02 23:35:11;;;;;;;9.27;8.67;;;14.30;99.90;;;;;;10409664;28;20225;-77
2022/10/02 23:41:35;;;;;;;9.60;8.90;;;14.20;99.90;;;;;;10410994;28;20194;-78
2022/10/02 23:45:51;;;;;;;8.83;8.30;;;14.20;99.90;;;;;;10398786;28;20762;-78
2022/10/02 23:51:12;;;;;;;9.80;9.10;;;14.20;99.90;;;;;;10399105;28;20218;-77
2022/10/02 23:56:34;;;;;;;9.80;9.10;;;14.20;99.90;;;;;;10420137;28;20229;-78
